createdAt,value
2023-03-21T00:00:25.196Z,7.60
2023-03-21T00:01:27.494Z,5.95
2023-03-21T00:02:32.062Z,6.63
2023-03-21T00:03:35.017Z,6.93
2023-03-21T00:04:50.346Z,7.95
2023-03-21T00:05:53.943Z,7.50
2023-03-21T00:06:56.369Z,6.47
2023-03-21T00:08:00.975Z,7.60
2023-03-21T00:09:03.873Z,5.25
2023-03-21T00:10:15.480Z,7.28
2023-03-21T00:11:21.692Z,6.22
2023-03-21T00:12:23.928Z,6.22
2023-03-21T00:13:28.335Z,7.38
2023-03-21T00:14:31.159Z,6.40
2023-03-21T00:15:42.411Z,6.05
2023-03-21T00:16:52.655Z,7.65
2023-03-21T00:18:03.589Z,9.30
2023-03-21T00:19:06.500Z,7.38
2023-03-21T00:20:15.336Z,8.95
2023-03-21T00:23:43.348Z,7.40
2023-03-21T00:24:45.544Z,8.68
2023-03-21T00:25:47.680Z,6.68
2023-03-21T00:26:50.023Z,8.50
2023-03-21T00:28:07.088Z,7.53
2023-03-21T00:29:10.570Z,6.72
2023-03-21T00:30:13.396Z,7.07
2023-03-21T00:31:16.004Z,8.35
2023-03-21T00:32:18.576Z,7.43
2023-03-21T00:33:23.029Z,7.57
2023-03-21T00:34:36.567Z,7.53
2023-03-21T00:36:06.005Z,6.43
2023-03-21T00:37:16.744Z,9.60
2023-03-21T00:38:19.560Z,9.52
2023-03-21T00:39:22.320Z,8.55
2023-03-21T00:40:30.989Z,7.18
2023-03-21T00:41:42.581Z,8.90
2023-03-21T00:42:45.825Z,8.77
2023-03-21T00:43:47.926Z,10.55
2023-03-21T00:44:50.298Z,8.05
2023-03-21T00:45:52.539Z,8.27
2023-03-21T00:47:06.642Z,7.75
2023-03-21T00:48:09.977Z,6.90
2023-03-21T01:04:29.253Z,11.70
2023-03-21T01:05:51.942Z,10.70
2023-03-21T01:06:55.369Z,12.07
2023-03-21T01:07:57.845Z,11.65
2023-03-21T01:09:00.101Z,9.68
2023-03-21T01:10:02.304Z,11.95
2023-03-21T01:11:06.987Z,12.02
2023-03-21T01:12:09.173Z,12.20
2023-03-21T01:13:13.246Z,12.32
2023-03-21T01:14:24.457Z,13.85
2023-03-21T01:16:28.673Z,13.57
2023-03-21T01:17:31.090Z,11.93
2023-03-21T01:18:35.421Z,12.13
2023-03-21T01:19:51.272Z,13.40
2023-03-21T01:20:55.566Z,12.30
2023-03-21T01:21:59.588Z,11.80
2023-03-21T01:23:04.704Z,12.18
2023-03-21T01:24:07.848Z,11.32
2023-03-21T01:25:22.025Z,12.02
2023-03-21T01:26:24.954Z,12.18
2023-03-21T01:27:27.091Z,11.70
2023-03-21T01:28:31.016Z,12.73
2023-03-21T01:29:33.286Z,9.88
2023-03-21T01:30:41.742Z,11.05
2023-03-21T01:31:47.005Z,11.40
2023-03-21T01:32:50.187Z,16.08
2023-03-21T01:33:52.314Z,11.60
2023-03-21T01:34:56.237Z,10.75
2023-03-21T01:36:10.299Z,17.00
2023-03-21T01:37:15.082Z,13.50
2023-03-21T01:38:17.528Z,13.60
2023-03-21T01:39:19.729Z,14.25
2023-03-21T01:40:24.218Z,18.90
2023-03-21T01:41:41.883Z,16.58
2023-03-21T01:42:44.978Z,16.33
2023-03-21T01:43:47.485Z,14.00
2023-03-21T01:44:55.385Z,12.90
2023-03-21T01:46:26.263Z,13.80
2023-03-21T01:47:29.545Z,14.73
2023-03-21T01:48:32.780Z,14.05
2023-03-21T01:49:38.746Z,12.10
2023-03-21T01:50:43.226Z,13.05
2023-03-21T01:51:49.365Z,14.63
2023-03-21T01:52:51.634Z,14.85
2023-03-21T01:53:55.805Z,13.80
2023-03-21T01:54:58.663Z,15.45
2023-03-21T01:56:07.124Z,16.42
2023-03-21T01:57:13.881Z,14.20
2023-03-21T01:58:19.026Z,15.85
2023-03-21T01:59:28.421Z,15.13
2023-03-21T02:00:31.867Z,15.52
2023-03-21T02:01:34.914Z,14.15
2023-03-21T02:02:52.630Z,13.43
2023-03-21T02:03:55.484Z,14.75
2023-03-21T02:04:58.598Z,13.48
2023-03-21T02:06:06.641Z,13.02
2023-03-21T02:07:12.525Z,15.43
2023-03-21T02:08:14.728Z,13.90
2023-03-21T02:09:20.383Z,16.23
2023-03-21T02:10:23.140Z,14.32
2023-03-21T02:11:27.058Z,14.73
2023-03-21T02:12:29.193Z,14.75
2023-03-21T02:13:31.510Z,16.20
2023-03-21T02:14:36.216Z,15.65
2023-03-21T02:15:41.395Z,15.73
2023-03-21T02:16:52.460Z,14.85
2023-03-21T02:17:59.449Z,15.07
2023-03-21T02:19:17.652Z,15.43
2023-03-21T02:20:54.515Z,14.00
2023-03-21T02:22:30.902Z,14.68
2023-03-21T02:24:21.658Z,14.60
2023-03-21T02:26:16.190Z,14.88
2023-03-21T02:27:21.961Z,15.52
2023-03-21T02:28:28.365Z,14.55
2023-03-21T02:30:04.673Z,13.70
2023-03-21T02:33:00.853Z,14.45
2023-03-21T02:34:40.541Z,15.32
2023-03-21T02:36:05.625Z,13.43
2023-03-21T02:37:36.582Z,14.95
2023-03-21T02:38:43.954Z,14.45
2023-03-21T02:39:56.157Z,12.95
2023-03-21T02:41:10.080Z,13.35
2023-03-21T02:42:21.474Z,12.93
2023-03-21T02:43:30.250Z,14.23
2023-03-21T02:44:40.259Z,13.20
2023-03-21T02:45:49.198Z,12.80
2023-03-21T02:47:05.391Z,13.48
2023-03-21T02:48:25.443Z,12.00
2023-03-21T02:49:35.656Z,14.88
2023-03-21T02:50:43.731Z,12.20
2023-03-21T02:51:48.331Z,14.55
2023-03-21T02:52:53.965Z,14.60
2023-03-21T02:54:27.904Z,13.77
2023-03-21T02:55:27.183Z,11.73
2023-03-21T02:56:31.456Z,15.20
2023-03-21T02:57:42.512Z,13.43
2023-03-21T02:58:46.543Z,12.07
2023-03-21T02:59:55.468Z,14.63
2023-03-21T03:00:59.197Z,10.85
2023-03-21T03:02:01.927Z,12.02
2023-03-21T03:03:09.922Z,12.02
2023-03-21T03:04:21.598Z,12.20
2023-03-21T03:05:26.482Z,12.90
2023-03-21T03:06:38.110Z,13.02
2023-03-21T03:07:45.079Z,11.82
2023-03-21T03:09:09.230Z,12.52
2023-03-21T03:10:23.135Z,13.30
2023-03-21T03:11:28.933Z,12.85
2023-03-21T03:12:38.854Z,12.85
2023-03-21T03:13:54.169Z,13.63
2023-03-21T03:15:07.471Z,14.68
2023-03-21T03:16:21.427Z,13.13
2023-03-21T03:17:37.387Z,11.88
2023-03-21T03:18:48.725Z,12.02
2023-03-21T03:20:16.385Z,10.10
2023-03-21T03:21:21.857Z,11.32
2023-03-21T03:22:29.660Z,11.40
2023-03-21T03:23:39.698Z,10.48
2023-03-21T03:24:50.135Z,11.57
2023-03-21T03:25:58.328Z,11.77
2023-03-21T03:27:07.020Z,10.50
2023-03-21T03:28:10.971Z,14.45
2023-03-21T03:29:16.777Z,12.43
2023-03-21T03:30:19.456Z,11.38
2023-03-21T03:31:27.247Z,11.00
2023-03-21T03:32:35.635Z,10.90
2023-03-21T03:33:41.840Z,10.20
2023-03-21T03:34:49.683Z,12.60
2023-03-21T03:36:05.107Z,11.35
2023-03-21T03:37:11.734Z,11.48
2023-03-21T03:38:15.672Z,10.50
2023-03-21T03:39:18.872Z,11.57
2023-03-21T03:40:27.275Z,12.57
2023-03-21T03:41:33.156Z,12.85
2023-03-21T03:42:49.621Z,13.30
2023-03-21T03:43:55.676Z,14.05
2023-03-21T03:44:58.464Z,11.75
2023-03-21T03:46:06.408Z,13.02
2023-03-21T03:47:13.450Z,12.18
2023-03-21T03:49:28.068Z,13.18
2023-03-21T03:50:34.593Z,11.98
2023-03-21T03:51:42.260Z,12.60
2023-03-21T03:52:56.233Z,12.50
2023-03-21T03:54:03.694Z,14.45
2023-03-21T03:55:06.932Z,11.98
2023-03-21T03:56:12.420Z,13.13
2023-03-21T03:57:16.144Z,13.07
2023-03-21T03:58:24.051Z,14.73
2023-03-21T03:59:28.207Z,13.55
2023-03-21T04:00:33.464Z,14.75
2023-03-21T04:01:35.905Z,13.63
2023-03-21T04:02:38.099Z,12.95
2023-03-21T04:03:49.873Z,14.93
2023-03-21T04:04:54.023Z,11.25
2023-03-21T04:05:56.258Z,13.18
2023-03-21T04:06:58.738Z,13.38
2023-03-21T04:08:01.103Z,12.75
2023-03-21T04:09:18.824Z,12.82
2023-03-21T04:10:22.945Z,11.48
2023-03-21T04:11:27.910Z,13.23
2023-03-21T04:12:31.695Z,14.38
2023-03-21T04:13:34.317Z,12.13
2023-03-21T04:14:44.592Z,12.05
2023-03-21T04:15:48.301Z,10.98
2023-03-21T04:16:50.720Z,11.82
2023-03-21T04:17:52.929Z,10.70
2023-03-21T04:18:55.176Z,10.32
2023-03-21T04:20:05.407Z,10.65
2023-03-21T04:21:13.588Z,10.30
2023-03-21T04:22:15.870Z,10.80
2023-03-21T04:23:19.533Z,10.63
2023-03-21T04:24:22.292Z,12.50
2023-03-21T04:25:33.349Z,9.60
2023-03-21T04:26:41.518Z,9.68
2023-03-21T04:27:43.786Z,9.73
2023-03-21T04:28:46.011Z,10.30
2023-03-21T04:29:48.661Z,10.85
2023-03-21T04:31:01.218Z,12.05
2023-03-21T04:32:16.268Z,10.90
2023-03-21T04:33:19.951Z,11.68
2023-03-21T04:34:24.212Z,13.77
2023-03-21T04:35:26.958Z,11.65
2023-03-21T04:36:39.184Z,10.65
2023-03-21T04:37:41.619Z,9.85
2023-03-21T04:38:48.592Z,10.25
2023-03-21T04:39:51.286Z,8.95
2023-03-21T04:40:53.604Z,10.15
2023-03-21T04:41:57.386Z,9.35
2023-03-21T04:43:01.348Z,10.65
2023-03-21T04:44:03.640Z,10.57
2023-03-21T04:45:06.992Z,8.73
2023-03-21T04:46:09.279Z,6.43
2023-03-21T04:47:13.338Z,7.47
2023-03-21T04:48:18.026Z,8.15
2023-03-21T04:49:21.401Z,7.88
2023-03-21T04:50:23.721Z,6.82
2023-03-21T04:51:26.374Z,6.93
2023-03-21T04:52:28.589Z,6.93
2023-03-21T04:53:31.447Z,7.32
2023-03-21T04:54:34.685Z,7.88
2023-03-21T04:55:37.220Z,7.57
2023-03-21T04:56:39.649Z,8.35
2023-03-21T04:57:43.247Z,7.65
2023-03-21T04:58:45.446Z,9.20
2023-03-21T04:59:47.662Z,7.32
2023-03-21T05:00:53.009Z,5.93
2023-03-21T05:01:56.949Z,7.20
2023-03-21T05:03:00.157Z,7.18
2023-03-21T05:04:03.612Z,6.82
2023-03-21T05:05:06.982Z,8.18
2023-03-21T05:06:10.332Z,6.43
2023-03-21T05:07:12.757Z,6.93
2023-03-21T05:08:15.669Z,8.77
2023-03-21T05:09:17.905Z,12.40
2023-03-21T05:10:20.591Z,12.27
2023-03-21T05:11:22.807Z,12.23
2023-03-21T05:12:24.994Z,13.05
2023-03-21T05:13:28.508Z,10.85
2023-03-21T05:14:30.779Z,10.38
2023-03-21T05:15:32.930Z,9.07
2023-03-21T05:17:39.269Z,9.57
2023-03-21T05:18:42.142Z,8.93
2023-03-21T05:19:44.329Z,10.30
2023-03-21T05:20:47.214Z,10.73
2023-03-21T05:21:49.792Z,10.02
2023-03-21T05:23:58.446Z,3.13
2023-03-21T05:25:00.772Z,3.58
2023-03-21T05:26:02.961Z,2.70
2023-03-21T05:27:05.560Z,2.78
2023-03-21T05:28:08.132Z,2.65
2023-03-21T05:29:11.818Z,3.15
2023-03-21T05:30:16.814Z,4.57
2023-03-21T05:31:19.370Z,2.15
2023-03-21T05:32:21.688Z,2.65
2023-03-21T05:33:24.125Z,3.28
2023-03-21T05:34:27.132Z,3.47
2023-03-21T05:35:29.424Z,3.97
2023-03-21T05:36:34.084Z,2.40
2023-03-21T05:37:36.852Z,3.60
2023-03-21T05:38:42.969Z,3.75
2023-03-21T08:45:29.482Z,26.15
2023-03-21T08:46:31.971Z,25.58
2023-03-21T08:47:36.649Z,29.48
2023-03-21T08:48:39.850Z,30.67
2023-03-21T08:49:45.722Z,28.00
2023-03-21T08:50:48.311Z,28.83
2023-03-21T08:51:50.594Z,31.17
2023-03-21T08:52:54.342Z,24.02
2023-03-21T08:53:56.771Z,24.98
2023-03-21T08:54:58.997Z,26.30
2023-03-21T08:56:01.193Z,31.42
2023-03-21T08:57:03.926Z,34.35
2023-03-21T08:58:06.803Z,50.03
2023-03-21T08:59:10.306Z,52.80
2023-03-21T09:00:18.159Z,47.58
2023-03-21T09:01:20.680Z,57.50
2023-03-21T09:03:27.456Z,67.37
2023-03-21T09:04:31.209Z,48.42
2023-03-21T09:18:43.493Z,40.00
2023-03-21T09:19:47.254Z,38.28
2023-03-21T09:20:50.552Z,35.85
2023-03-21T09:21:53.939Z,44.13
2023-03-21T09:22:56.918Z,43.25
2023-03-21T09:24:00.774Z,44.10
2023-03-21T09:25:03.293Z,36.92
2023-03-21T10:03:23.926Z,15.70
2023-03-21T10:04:27.697Z,13.18
2023-03-21T10:05:32.729Z,15.55
2023-03-21T10:06:40.293Z,14.95
2023-03-21T10:07:51.195Z,12.65
2023-03-21T10:08:56.672Z,15.57
2023-03-21T10:10:04.490Z,14.55
2023-03-21T10:11:13.387Z,25.08
2023-03-21T10:12:21.581Z,23.02
2023-03-21T10:13:27.785Z,24.83
2023-03-21T10:14:33.010Z,20.48
2023-03-21T10:15:35.817Z,16.17
2023-03-21T10:16:41.537Z,15.77
2023-03-21T10:17:46.646Z,14.27
2023-03-21T10:18:49.928Z,17.98
2023-03-21T10:20:00.331Z,14.95
2023-03-21T10:21:04.479Z,16.25
2023-03-21T10:22:08.615Z,21.05
2023-03-21T10:23:14.438Z,19.25
2023-03-21T10:24:19.240Z,13.77
2023-03-21T10:25:26.125Z,12.38
2023-03-21T10:26:31.039Z,15.55
